Time;durP1;ratioP1;P1;durP2;ratioP2;P2;SDS_P1;SDS_P2;PMS_P1;PMS_P2;Temp;Humidity;BMP_temperature;BMP_pressure;BME280_temperature;BME280_humidity;BME280_pressure;Samples;Min_cycle;Max_cycle;Signal;HPM_P1;HPM_P2
2023/09/02 00:00:27;;;;;;;1.50;1.40;;;;;;;14.31;100.00;100460.77;104990;1259;61289;-46
2023/09/02 00:02:54;;;;;;;1.50;1.40;;;;;;;14.28;100.00;100463.10;104928;1253;73255;-47
2023/09/02 00:05:22;;;;;;;1.50;1.30;;;;;;;14.27;100.00;100459.56;104794;1257;67033;-49
2023/09/02 00:07:49;;;;;;;2.10;2.00;;;;;;;14.25;100.00;100456.08;104899;1256;73185;-47
2023/09/02 00:10:17;;;;;;;1.60;1.50;;;;;;;14.22;100.00;100459.81;104964;1254;61671;-49
2023/09/02 00:12:44;;;;;;;1.80;1.10;;;;;;;14.20;100.00;100463.18;104889;1254;60727;-50
2023/09/02 00:15:12;;;;;;;1.90;1.30;;;;;;;14.17;100.00;100465.30;104929;1254;72635;-48
2023/09/02 00:17:39;;;;;;;1.60;1.50;;;;;;;14.14;100.00;100463.46;104929;1258;65865;-49
2023/09/02 00:20:08;;;;;;;2.10;1.20;;;;;;;14.12;100.00;100463.63;104939;1254;71541;-52
2023/09/02 00:22:35;;;;;;;3.90;1.00;;;;;;;14.09;100.00;100465.92;104916;1254;62225;-49
2023/09/02 00:25:02;;;;;;;1.20;1.10;;;;;;;14.08;100.00;100463.80;105032;1254;60464;-48
2023/09/02 00:27:30;;;;;;;1.30;1.20;;;;;;;14.07;100.00;100458.98;104720;1254;73838;-48
2023/09/02 00:29:57;;;;;;;1.30;1.20;;;;;;;14.05;100.00;100461.41;104908;1259;68968;-48
2023/09/02 00:32:24;;;;;;;1.90;1.50;;;;;;;14.03;100.00;100467.79;104817;1259;71326;-47
2023/09/02 00:34:52;;;;;;;4.00;1.40;;;;;;;14.03;100.00;100469.64;109072;1252;60549;-49
2023/09/02 00:37:20;;;;;;;1.30;1.20;;;;;;;14.02;100.00;100467.70;109025;1254;60002;-49
2023/09/02 00:39:47;;;;;;;1.20;1.10;;;;;;;14.01;100.00;100469.60;109056;1253;74419;-48
2023/09/02 00:42:15;;;;;;;1.80;1.70;;;;;;;13.99;100.00;100463.73;109021;1253;66397;-50
2023/09/02 00:44:43;;;;;;;1.70;1.40;;;;;;;13.97;100.00;100465.81;108989;1254;73117;-49
2023/09/02 00:47:10;;;;;;;2.10;1.30;;;;;;;13.94;100.00;100470.11;109020;1252;60458;-50
2023/09/02 00:49:37;;;;;;;1.50;1.20;;;;;;;13.93;100.00;100468.39;109042;1253;60560;-53
2023/09/02 00:52:05;;;;;;;4.40;1.20;;;;;;;13.89;100.00;100470.16;108790;1254;72632;-49
2023/09/02 00:54:32;;;;;;;1.20;1.10;;;;;;;13.84;100.00;100471.52;109174;1253;67225;-49
2023/09/02 00:57:00;;;;;;;1.10;1.00;;;;;;;13.79;100.00;100480.28;109011;1252;71696;-52
2023/09/02 00:59:27;;;;;;;2.20;1.20;;;;;;;13.76;100.00;100481.14;105089;1254;60565;-51
2023/09/02 01:01:55;;;;;;;1.40;1.00;;;;;;;13.76;100.00;100482.42;104643;1254;60394;-49
2023/09/02 01:04:23;;;;;;;1.60;1.30;;;;;;;13.76;100.00;100485.48;104866;1255;72981;-47
2023/09/02 01:06:50;;;;;;;1.20;1.10;;;;;;;13.75;100.00;100481.74;104893;1253;66440;-48
2023/09/02 01:09:17;;;;;;;1.30;1.20;;;;;;;13.71;100.00;100481.20;105014;1258;70709;-50
2023/09/02 01:11:45;;;;;;;3.70;1.30;;;;;;;13.68;100.00;100476.88;105289;1254;60549;-48
2023/09/02 01:14:14;;;;;;;1.70;1.60;;;;;;;13.64;100.00;100479.75;104893;1254;60519;-48
2023/09/02 01:16:41;;;;;;;2.70;1.40;;;;;;;13.57;100.00;100483.70;105330;1256;73785;-48
2023/09/02 01:19:11;;;;;;;1.70;1.10;;;;;;;13.47;100.00;100487.05;105283;1257;67243;-47
2023/09/02 01:22:14;;;;;;;1.60;1.10;;;;;;;13.39;100.00;100483.86;105442;1253;73226;-46
2023/09/02 01:24:59;;;;;;;1.10;1.00;;;;;;;13.33;100.00;100490.30;104885;1254;61741;-47
2023/09/02 01:27:30;;;;;;;2.40;1.30;;;;;;;13.28;100.00;100488.19;104846;1254;60558;-46
2023/09/02 01:30:08;;;;;;;2.20;0.90;;;;;;;13.25;100.00;100490.30;106346;1255;73771;-46
2023/09/02 01:32:39;;;;;;;0.80;0.80;;;;;;;13.24;100.00;100485.86;105803;1254;66457;-46
2023/09/02 01:35:07;;;;;;;1.00;0.90;;;;;;;13.23;100.00;100487.85;107419;1257;71480;-52
2023/09/02 01:37:37;;;;;;;2.90;1.30;;;;;;;13.24;100.00;100490.72;105100;1260;61717;-49
2023/09/02 01:40:05;;;;;;;1.30;1.20;;;;;;;13.24;100.00;100489.96;105116;1253;60569;-48
2023/09/02 01:42:32;;;;;;;1.30;1.00;;;;;;;13.25;100.00;100489.42;104909;1254;72961;-49
2023/09/02 01:45:00;;;;;;;1.70;1.50;;;;;;;13.23;100.00;100486.06;104924;1254;65511;-47
2023/09/02 01:47:27;;;;;;;1.20;1.10;;;;;;;13.19;100.00;100487.34;104866;1261;71273;-48
2023/09/02 01:49:55;;;;;;;1.90;1.50;;;;;;;13.16;100.00;100486.80;105014;1258;61600;-52
2023/09/02 01:52:22;;;;;;;5.20;1.50;;;;;;;13.11;100.00;100493.61;104985;1258;60354;-47
2023/09/02 01:54:49;;;;;;;4.30;1.10;;;;;;;13.09;100.00;100495.92;105121;1254;73076;-47
2023/09/02 01:57:17;;;;;;;1.10;1.00;;;;;;;13.07;100.00;100494.00;105097;1255;66783;-49
2023/09/02 01:59:44;;;;;;;1.20;1.00;;;;;;;13.06;100.00;100492.97;104862;1257;72424;-49
2023/09/02 02:02:14;;;;;;;1.10;1.00;;;;;;;13.05;100.00;100493.92;104946;1253;60739;-47
2023/09/02 02:04:42;;;;;;;1.90;0.90;;;;;;;13.03;100.00;100492.58;105005;1260;60559;-48
2023/09/02 02:07:13;;;;;;;1.90;1.10;;;;;;;13.01;100.00;100489.44;104809;1254;72865;-50
2023/09/02 02:09:43;;;;;;;1.90;0.80;;;;;;;13.01;100.00;100489.96;105720;1253;67740;-50
2023/09/02 02:12:10;;;;;;;0.80;0.80;;;;;;;13.02;100.00;100493.18;105000;1254;72416;-47
2023/09/02 02:14:37;;;;;;;1.00;0.90;;;;;;;13.02;100.00;100491.16;104998;1254;61609;-50
2023/09/02 02:17:05;;;;;;;1.20;1.10;;;;;;;13.03;100.00;100495.27;105036;1253;60496;-49
2023/09/02 02:19:33;;;;;;;1.20;1.10;;;;;;;13.03;100.00;100493.45;104796;1260;73832;-49
2023/09/02 02:22:01;;;;;;;2.50;1.00;;;;;;;13.04;100.00;100493.77;104965;1254;65780;-48
2023/09/02 02:24:28;;;;;;;2.50;1.50;;;;;;;13.03;100.00;100495.45;104727;1260;72925;-49
2023/09/02 02:26:56;;;;;;;1.40;1.30;;;;;;;13.01;100.00;100498.64;105130;1254;60526;-49
2023/09/02 02:29:23;;;;;;;1.40;1.30;;;;;;;12.98;100.00;100497.13;105023;1253;60509;-50
2023/09/02 02:31:50;;;;;;;1.50;1.20;;;;;;;12.96;100.00;100494.54;104965;1254;72629;-51
2023/09/02 02:34:18;;;;;;;1.20;1.10;;;;;;;12.90;100.00;100496.41;104985;1254;68417;-49
2023/09/02 02:36:45;;;;;;;1.90;1.00;;;;;;;12.86;100.00;100494.22;105022;1258;72454;-50
2023/09/02 02:39:13;;;;;;;1.90;1.00;;;;;;;12.80;100.00;100496.15;104971;1257;60624;-51
2023/09/02 02:41:40;;;;;;;1.40;0.90;;;;;;;12.75;100.00;100499.81;104992;1254;60587;-50
2023/09/02 02:44:08;;;;;;;1.70;0.90;;;;;;;12.71;100.00;100497.82;105171;1253;73743;-50
2023/09/02 02:46:35;;;;;;;1.80;1.00;;;;;;;12.70;100.00;100502.55;104933;1253;65499;-51
2023/09/02 02:49:03;;;;;;;0.80;0.80;;;;;;;12.69;100.00;100501.87;105004;1254;71780;-50
2023/09/02 02:51:30;;;;;;;3.10;0.80;;;;;;;12.69;100.00;100504.59;104898;1253;61694;-51
2023/09/02 02:53:57;;;;;;;1.40;0.90;;;;;;;12.68;100.00;100504.98;104992;1254;60554;-51
2023/09/02 02:56:24;;;;;;;2.00;1.00;;;;;;;12.67;100.00;100505.22;104934;1254;73828;-49
2023/09/02 02:58:54;;;;;;;1.20;1.00;;;;;;;12.67;100.00;100504.51;105114;1257;67173;-51
2023/09/02 03:01:21;;;;;;;1.20;1.10;;;;;;;12.66;100.00;100502.37;104862;1253;72627;-50
2023/09/02 03:03:49;;;;;;;1.10;1.00;;;;;;;12.65;100.00;100500.45;104924;1254;60437;-50
2023/09/02 03:06:20;;;;;;;1.40;1.10;;;;;;;12.63;100.00;100500.70;104918;1253;61258;-49
2023/09/02 03:08:47;;;;;;;1.20;1.00;;;;;;;12.61;100.00;100499.91;104861;1254;73768;-49
2023/09/02 03:11:15;;;;;;;0.90;0.80;;;;;;;12.57;100.00;100499.19;104836;1254;67329;-50
2023/09/02 03:13:42;;;;;;;6.30;1.10;;;;;;;12.54;100.00;100505.83;106066;1258;73058;-48
2023/09/02 03:16:16;;;;;;;1.80;0.90;;;;;;;12.47;100.00;100507.90;104723;1253;60610;-48
2023/09/02 03:18:45;;;;;;;1.10;1.00;;;;;;;12.44;100.00;100508.41;104920;1253;60557;-49
2023/09/02 03:21:12;;;;;;;1.80;0.90;;;;;;;12.43;100.00;100505.38;105007;1254;73785;-48
2023/09/02 03:23:39;;;;;;;0.80;0.80;;;;;;;12.44;100.00;100506.94;104809;1255;66308;-49
2023/09/02 03:26:11;;;;;;;0.90;0.80;;;;;;;12.44;100.00;100501.54;104905;1258;71413;-49
2023/09/02 03:28:40;;;;;;;0.70;0.70;;;;;;;12.44;100.00;100504.23;108983;1253;60503;-48
2023/09/02 03:31:08;;;;;;;1.00;0.90;;;;;;;12.46;100.00;100505.08;109092;1252;60170;-51
2023/09/02 03:33:36;;;;;;;2.90;1.00;;;;;;;12.47;100.00;100499.61;108789;1254;72568;-51
2023/09/02 03:36:05;;;;;;;1.00;0.90;;;;;;;12.49;100.00;100498.46;108954;1254;67543;-50
2023/09/02 03:38:32;;;;;;;2.30;1.10;;;;;;;12.51;100.00;100507.35;108957;1254;71439;-51
2023/09/02 03:40:59;;;;;;;1.30;1.20;;;;;;;12.54;100.00;100511.20;108877;1254;59130;-52
2023/09/02 03:43:27;;;;;;;2.70;1.80;;;;;;;12.54;100.00;100514.46;108841;1254;58736;-50
2023/09/02 03:45:57;;;;;;;1.10;1.00;;;;;;;12.50;100.00;100519.10;108962;1254;73975;-51
2023/09/02 03:48:25;;;;;;;1.00;0.90;;;;;;;12.49;100.00;100519.18;108874;1254;68726;-50
2023/09/02 03:51:11;;;;;;;2.40;0.80;;;;;;;12.50;100.00;100517.45;108782;1254;72967;-49
2023/09/02 03:53:39;;;;;;;1.10;0.80;;;;;;;12.53;100.00;100519.34;108813;1255;62056;-51
2023/09/02 03:56:07;;;;;;;1.40;0.90;;;;;;;12.57;100.00;100518.11;107730;1254;60955;-49
2023/09/02 03:58:34;;;;;;;0.90;0.80;;;;;;;12.61;100.00;100518.96;106165;1259;74898;-48
2023/09/02 04:01:03;;;;;;;3.40;0.80;;;;;;;12.68;100.00;100520.29;104725;1261;65356;-49
2023/09/02 04:03:35;;;;;;;1.50;1.00;;;;;;;12.75;100.00;100523.38;106179;1254;72365;-51
2023/09/02 04:06:04;;;;;;;3.10;0.80;;;;;;;12.82;100.00;100525.58;105371;1257;60540;-49
2023/09/02 04:08:33;;;;;;;1.30;1.10;;;;;;;12.89;100.00;100523.50;104987;1256;60418;-48
2023/09/02 04:11:02;;;;;;;1.20;1.10;;;;;;;12.92;100.00;100520.48;105758;1258;74358;-49
2023/09/02 04:13:30;;;;;;;1.30;1.20;;;;;;;12.93;100.00;100521.29;105255;1254;66153;-50
2023/09/02 04:16:02;;;;;;;1.60;1.10;;;;;;;12.95;100.00;100524.29;104985;1260;71398;-50
2023/09/02 04:18:32;;;;;;;3.40;1.50;;;;;;;12.99;100.00;100527.56;104917;1254;61680;-52
2023/09/02 04:21:02;;;;;;;1.90;0.80;;;;;;;13.04;100.00;100532.35;104849;1256;60368;-52
2023/09/02 04:23:30;;;;;;;1.70;1.00;;;;;;;13.10;100.00;100536.76;105628;1254;72622;-50
2023/09/02 04:26:03;;;;;;;0.90;0.80;;;;;;;13.18;100.00;100535.34;105188;1254;66996;-51
2023/09/02 04:28:31;;;;;;;1.50;0.90;;;;;;;13.28;100.00;100536.31;105076;1255;71454;-50
2023/09/02 04:30:59;;;;;;;1.80;0.80;;;;;;;13.40;100.00;100537.36;104919;1256;60902;-48
2023/09/02 04:33:29;;;;;;;0.80;0.80;;;;;;;13.52;100.00;100534.61;104903;1253;60591;-51
2023/09/02 04:36:00;;;;;;;0.80;0.80;;;;;;;13.64;100.00;100537.64;104845;1255;72659;-51
2023/09/02 04:38:29;;;;;;;3.20;1.00;;;;;;;13.77;100.00;100539.18;104786;1256;65689;-50
2023/09/02 04:40:56;;;;;;;1.30;1.00;;;;;;;13.89;100.00;100542.20;105051;1255;71428;-51
2023/09/02 04:43:23;;;;;;;4.00;0.80;;;;;;;14.00;100.00;100545.98;105004;1260;62793;-50
2023/09/02 04:45:53;;;;;;;1.30;0.70;;;;;;;14.06;100.00;100548.39;105239;1253;61084;-49
2023/09/02 04:48:20;;;;;;;1.00;0.90;;;;;;;14.09;100.00;100551.30;104951;1260;73912;-52
2023/09/02 04:50:51;;;;;;;3.70;0.80;;;;;;;14.15;100.00;100551.87;104650;1253;67145;-52
2023/09/02 04:53:19;;;;;;;0.80;0.80;;;;;;;14.23;100.00;100551.08;104897;1260;72748;-49
2023/09/02 04:55:48;;;;;;;1.00;0.90;;;;;;;14.32;100.00;100548.69;104833;1254;60665;-46
2023/09/02 04:58:16;;;;;;;1.10;0.90;;;;;;;14.40;100.00;100545.55;104843;1253;62356;-48
2023/09/02 05:00:44;;;;;;;3.00;1.00;;;;;;;14.51;100.00;100535.98;105381;1254;74833;-52
2023/09/02 05:03:12;;;;;;;1.80;1.00;;;;;;;14.61;100.00;100531.48;105261;1255;67740;-52
2023/09/02 05:05:40;;;;;;;1.80;1.20;;;;;;;14.71;100.00;100536.52;104967;1256;71509;-52
2023/09/02 05:08:11;;;;;;;1.50;1.30;;;;;;;14.82;100.00;100531.08;105037;1253;60835;-48
2023/09/02 05:10:39;;;;;;;4.60;1.00;;;;;;;14.91;100.00;100527.52;105435;1261;60504;-52
2023/09/02 05:13:07;;;;;;;2.00;1.30;;;;;;;14.99;100.00;100529.80;104813;1253;74416;-48
2023/09/02 05:15:36;;;;;;;1.30;1.00;;;;;;;15.07;100.00;100530.45;104777;1260;66405;-49
2023/09/02 05:18:03;;;;;;;1.10;0.90;;;;;;;15.15;100.00;100527.48;104722;1253;72689;-48
2023/09/02 05:20:31;;;;;;;3.70;0.90;;;;;;;15.25;100.00;100526.73;105788;1253;60795;-48
2023/09/02 05:22:58;;;;;;;1.30;0.90;;;;;;;15.36;100.00;100526.49;104763;1253;60571;-50
2023/09/02 05:25:27;;;;;;;1.80;1.10;;;;;;;15.46;100.00;100524.62;105009;1253;72340;-50
2023/09/02 05:27:57;;;;;;;1.20;1.00;;;;;;;15.57;100.00;100522.45;105000;1253;65586;-49
2023/09/02 05:30:25;;;;;;;2.50;0.90;;;;;;;15.64;100.00;100525.47;104851;1253;72539;-52
2023/09/02 05:32:52;;;;;;;1.50;1.10;;;;;;;15.73;100.00;100527.29;104723;1258;60430;-50
2023/09/02 05:35:20;;;;;;;1.30;1.20;;;;;;;15.83;100.00;100527.45;105584;1260;59183;-50
2023/09/02 05:37:47;;;;;;;3.30;1.10;;;;;;;15.92;100.00;100523.52;104846;1254;73862;-50
2023/09/02 05:40:15;;;;;;;1.20;1.00;;;;;;;16.00;100.00;100526.11;104857;1260;65509;-49
2023/09/02 05:42:42;;;;;;;1.20;1.10;;;;;;;16.08;100.00;100520.53;104785;1260;72720;-51
2023/09/02 05:45:09;;;;;;;1.40;1.00;;;;;;;16.16;100.00;100517.55;104753;1259;60556;-49
2023/09/02 05:47:37;;;;;;;1.20;0.90;;;;;;;16.23;100.00;100520.55;104876;1260;60450;-50
2023/09/02 05:50:05;;;;;;;2.40;0.90;;;;;;;16.31;100.00;100521.01;104893;1253;72632;-51
2023/09/02 05:52:32;;;;;;;2.10;0.70;;;;;;;16.39;100.00;100523.60;104965;1254;65507;-49
2023/09/02 05:55:00;;;;;;;3.20;0.80;;;;;;;16.47;100.00;100525.66;104937;1254;73050;-50
2023/09/02 05:57:29;;;;;;;2.60;1.00;;;;;;;16.55;100.00;100524.41;104871;1253;61708;-50
2023/09/02 05:59:57;;;;;;;2.30;1.10;;;;;;;16.64;100.00;100520.42;104839;1260;60445;-49
2023/09/02 06:02:27;;;;;;;2.90;1.30;;;;;;;16.75;100.00;100519.42;104956;1253;73817;-51
2023/09/02 06:04:55;;;;;;;1.10;1.00;;;;;;;16.86;100.00;100522.39;108932;1253;65999;-52
2023/09/02 06:07:22;;;;;;;3.20;0.90;;;;;;;16.96;100.00;100520.85;105872;1256;74390;-49
2023/09/02 06:09:50;;;;;;;0.90;0.90;;;;;;;17.07;100.00;100524.88;104844;1253;60604;-51
2023/09/02 06:12:18;;;;;;;5.20;0.80;;;;;;;17.18;100.00;100525.23;104941;1260;61339;-52
2023/09/02 06:14:45;;;;;;;1.10;0.90;;;;;;;17.30;100.00;100526.13;105066;1258;74559;-50
2023/09/02 06:17:12;;;;;;;0.80;0.80;;;;;;;17.38;100.00;100525.73;104856;1253;66514;-51
2023/09/02 06:19:40;;;;;;;3.30;0.90;;;;;;;17.48;100.00;100527.51;104946;1253;72680;-50
2023/09/02 06:22:07;;;;;;;2.10;0.80;;;;;;;17.55;100.00;100533.73;104948;1260;60734;-51
2023/09/02 06:24:34;;;;;;;0.80;0.80;;;;;;;17.63;100.00;100532.48;104918;1254;60493;-50
2023/09/02 06:27:05;;;;;;;0.90;0.80;;;;;;;17.69;100.00;100534.26;104756;1253;73327;-51
2023/09/02 06:29:32;;;;;;;0.70;0.60;;;;;;;17.75;100.00;100533.70;104946;1253;66331;-50
2023/09/02 06:32:00;;;;;;;1.20;0.70;;;;;;;17.82;100.00;100536.75;104717;1253;71445;-50
2023/09/02 06:34:27;;;;;;;0.80;0.80;;;;;;;17.87;100.00;100535.66;104845;1254;60461;-51
2023/09/02 06:36:55;;;;;;;1.00;0.80;;;;;;;17.92;100.00;100533.67;104758;1255;60521;-50
2023/09/02 06:39:22;;;;;;;1.30;0.80;;;;;;;17.98;100.00;100535.09;104872;1258;73877;-52
2023/09/02 06:41:49;;;;;;;2.70;0.70;;;;;;;18.04;100.00;100539.06;104755;1256;66888;-52
2023/09/02 06:44:22;;;;;;;6.30;0.80;;;;;;;18.09;100.00;100537.27;104850;1255;70697;-50
2023/09/02 06:46:50;;;;;;;4.50;0.60;;;;;;;18.13;100.00;100536.23;104830;1255;60495;-50
2023/09/02 06:49:17;;;;;;;1.30;0.60;;;;;;;18.20;100.00;100542.00;104921;1253;60566;-51
2023/09/02 06:51:45;;;;;;;0.90;0.50;;;;;;;18.27;100.00;100542.27;104755;1253;72108;-50
2023/09/02 06:54:12;;;;;;;3.90;0.60;;;;;;;18.35;100.00;100539.70;104727;1253;66760;-52
2023/09/02 06:56:39;;;;;;;3.00;0.60;;;;;;;18.43;100.00;100539.11;104669;1260;72614;-51
2023/09/02 06:59:07;;;;;;;2.80;0.60;;;;;;;18.51;100.00;100533.65;104373;1260;61035;-50
2023/09/02 07:01:34;;;;;;;1.20;0.50;;;;;;;18.60;100.00;100534.02;104588;1255;60681;-51
2023/09/02 07:04:02;;;;;;;0.70;0.60;;;;;;;18.70;100.00;100538.06;104850;1260;73769;-50
2023/09/02 07:06:29;;;;;;;4.10;0.50;;;;;;;18.79;100.00;100537.76;104828;1260;65727;-50
2023/09/02 07:08:56;;;;;;;0.50;0.40;;;;;;;18.88;100.00;100541.66;104865;1258;72665;-51
2023/09/02 07:11:24;;;;;;;1.60;0.40;;;;;;;18.97;100.00;100541.18;104642;1255;61177;-51
2023/09/02 07:13:52;;;;;;;2.90;0.40;;;;;;;19.07;100.00;100543.03;104990;1253;60618;-52
2023/09/02 07:16:19;;;;;;;0.70;0.50;;;;;;;19.16;100.00;100545.85;106659;1256;74354;-51
2023/09/02 07:18:47;;;;;;;2.30;0.40;;;;;;;19.23;100.00;100542.39;104987;1254;65585;-52
2023/09/02 07:21:14;;;;;;;0.50;0.40;;;;;;;19.32;100.00;100542.73;104720;1260;72640;-52
2023/09/02 07:23:41;;;;;;;1.90;0.40;;;;;;;19.40;100.00;100543.41;104834;1253;61031;-50
2023/09/02 07:26:09;;;;;;;0.50;0.30;;;;;;;19.46;100.00;100542.07;104952;1260;60541;-50
2023/09/02 07:28:37;;;;;;;3.30;0.40;;;;;;;19.52;100.00;100543.25;104877;1260;74070;-53
2023/09/02 07:31:05;;;;;;;1.70;0.50;;;;;;;19.58;100.00;100540.09;104730;1260;65527;-51
2023/09/02 07:33:33;;;;;;;0.60;0.50;;;;;;;19.64;100.00;100541.29;104767;1260;71250;-52
2023/09/02 07:36:13;;;;;;;0.40;0.40;;;;;;;19.71;100.00;100540.08;104753;1260;62225;-50
2023/09/02 07:38:40;;;;;;;0.40;0.40;;;;;;;19.78;100.00;100538.79;105034;1254;61079;-52
2023/09/02 07:41:09;;;;;;;1.20;0.40;;;;;;;19.84;100.00;100540.02;105030;1256;73814;-52
2023/09/02 07:43:37;;;;;;;0.50;0.40;;;;;;;19.91;100.00;100541.50;104926;1255;66676;-52
2023/09/02 07:46:04;;;;;;;0.50;0.40;;;;;;;19.98;100.00;100545.27;104912;1256;73227;-52
2023/09/02 07:48:32;;;;;;;0.50;0.40;;;;;;;20.06;100.00;100548.02;104593;1260;202805;-54
2023/09/02 07:52:29;;;;;;;0.40;0.30;;;;;;;20.18;100.00;100615.44;101884;1289;599715;-51
2023/09/02 07:54:57;;;;;;;0.40;0.40;;;;;;;20.26;100.00;100610.27;104011;1270;60063;-53
2023/09/02 07:57:24;;;;;;;0.50;0.40;;;;;;;20.34;100.00;100600.92;104070;1269;59408;-55
2023/09/02 07:59:51;;;;;;;0.40;0.30;;;;;;;20.42;100.00;100598.15;104130;1271;72050;-52
2023/09/02 08:02:19;;;;;;;0.60;0.30;;;;;;;20.49;100.00;100591.98;103959;1267;65495;-53
2023/09/02 08:04:46;;;;;;;1.00;0.40;;;;;;;20.54;100.00;100587.74;104076;1267;72720;-52
2023/09/02 08:07:14;;;;;;;1.20;0.40;;;;;;;20.60;100.00;100585.09;104110;1264;190951;-50
2023/09/02 08:09:41;;;;;;;0.40;0.40;;;;;;;20.67;100.00;100589.63;104106;1264;60726;-52
2023/09/02 08:12:08;;;;;;;0.40;0.30;;;;;;;20.75;100.00;100583.59;104469;1263;70740;-52
2023/09/02 08:14:36;;;;;;;1.20;0.40;;;;;;;20.83;100.00;100582.60;104504;1262;66873;-52
2023/09/02 08:17:03;;;;;;;0.40;0.40;;;;;;;20.92;100.00;100582.77;104604;1257;72908;-53
2023/09/02 08:19:31;;;;;;;0.50;0.50;;;;;;;20.98;100.00;100585.21;104579;1262;60550;-51
2023/09/02 08:21:58;;;;;;;0.40;0.30;;;;;;;21.04;100.00;100583.65;104463;1257;59782;-55
2023/09/02 08:24:26;;;;;;;0.30;0.30;;;;;;;21.10;100.00;100578.98;104712;1254;73636;-52
2023/09/02 08:26:53;;;;;;;0.60;0.40;;;;;;;21.15;100.00;100582.44;104460;1257;66216;-54
2023/09/02 08:29:21;;;;;;;0.40;0.30;;;;;;;21.21;100.00;100583.09;104466;1257;72700;-52
2023/09/02 08:31:53;;;;;;;0.60;0.40;;;;;;;21.28;100.00;100584.16;104353;1257;59743;-53
2023/09/02 08:34:20;;;;;;;0.40;0.30;;;;;;;21.36;100.00;100581.89;104440;1257;60444;-52
2023/09/02 08:36:48;;;;;;;0.60;0.50;;;;;;;21.45;100.00;100585.52;104400;1262;73015;-52
2023/09/02 08:39:15;;;;;;;0.70;0.30;;;;;;;21.55;100.00;100592.36;104359;1257;65788;-52
2023/09/02 08:41:44;;;;;;;0.40;0.30;;;;;;;21.61;100.00;100593.02;104561;1262;72753;-53
2023/09/02 08:44:15;;;;;;;2.00;0.50;;;;;;;21.63;100.00;100591.77;104331;1260;59767;-52
2023/09/02 08:46:44;;;;;;;0.50;0.40;;;;;;;21.64;100.00;100598.39;104543;1256;59859;-53
2023/09/02 08:49:13;;;;;;;0.50;0.40;;;;;;;21.66;100.00;100588.39;104400;1262;73110;-54
2023/09/02 08:51:40;;;;;;;0.40;0.20;;;;;;;21.69;100.00;100592.00;104497;1263;66776;-53
2023/09/02 08:54:08;;;;;;;0.40;0.40;;;;;;;21.73;100.00;100594.70;104000;1263;71372;-53
2023/09/02 08:56:37;;;;;;;0.60;0.40;;;;;;;21.79;100.00;100595.70;104259;1257;60676;-54
2023/09/02 08:59:04;;;;;;;0.90;0.40;;;;;;;21.82;100.00;100594.73;104181;1257;60010;-53
2023/09/02 09:01:32;;;;;;;0.30;0.30;;;;;;;21.85;100.00;100594.83;104289;1257;73447;-54
2023/09/02 09:03:59;;;;;;;0.40;0.40;;;;;;;21.90;100.00;100592.23;104282;1258;65575;-53
2023/09/02 09:06:26;;;;;;;1.60;0.50;;;;;;;21.96;100.00;100593.76;104213;1264;73198;-54
2023/09/02 09:08:55;;;;;;;0.80;0.40;;;;;;;22.03;100.00;100594.84;104444;1257;59711;-56
2023/09/02 09:11:24;;;;;;;0.50;0.40;;;;;;;22.10;100.00;100595.54;104539;1262;59644;-55
2023/09/02 09:13:51;;;;;;;0.50;0.40;;;;;;;22.17;100.00;100592.20;104398;1257;73025;-53
2023/09/02 09:16:24;;;;;;;3.10;0.50;;;;;;;22.28;100.00;100599.86;104282;1260;65642;-54
2023/09/02 09:18:51;;;;;;;2.20;0.50;;;;;;;22.39;100.00;100602.65;108822;1257;72662;-53
2023/09/02 09:21:19;;;;;;;0.50;0.40;;;;;;;22.48;100.00;100599.88;108774;1257;60653;-51
2023/09/02 09:23:47;;;;;;;1.00;0.50;;;;;;;22.57;100.00;100595.02;108820;1257;60515;-50
2023/09/02 09:26:14;;;;;;;0.50;0.30;;;;;;;22.68;100.00;100593.58;108633;1257;71727;-52
2023/09/02 09:28:52;;;;;;;0.60;0.40;;;;;;;22.79;100.00;100597.94;108653;1257;65813;-54
2023/09/02 09:31:20;;;;;;;1.20;0.50;;;;;;;22.86;100.00;100594.59;108776;1260;72151;-51
2023/09/02 09:33:53;;;;;;;0.60;0.40;;;;;;;22.92;100.00;100596.67;108845;1257;58789;-52
2023/09/02 09:36:21;;;;;;;0.50;0.40;;;;;;;22.99;100.00;100595.11;108751;1257;60569;-52
2023/09/02 09:38:52;;;;;;;0.60;0.50;;;;;;;23.01;100.00;100602.63;108772;1257;72244;-51
2023/09/02 09:41:19;;;;;;;0.60;0.40;;;;;;;23.00;100.00;100602.67;108678;1257;66934;-50
2023/09/02 09:44:06;;;;;;;3.00;0.40;;;;;;;23.02;100.00;100595.02;108623;1257;72480;-52
2023/09/02 09:46:42;;;;;;;2.00;0.50;;;;;;;23.08;100.00;100595.30;106113;1257;60070;-53
2023/09/02 09:49:22;;;;;;;0.70;0.50;;;;;;;23.17;100.00;100594.84;104392;1263;59796;-52
2023/09/02 09:52:07;;;;;;;0.40;0.40;;;;;;;23.26;100.00;100593.48;104587;1258;73106;-52
2023/09/02 09:54:48;;;;;;;0.60;0.50;;;;;;;23.37;100.00;100596.13;104941;1257;67281;-51
2023/09/02 09:57:29;;;;;;;0.80;0.40;;;;;;;23.48;100.00;100599.30;104739;1258;71395;-52
2023/09/02 09:59:57;;;;;;;0.50;0.40;;;;;;;23.49;100.00;100603.53;105114;1262;60027;-49
2023/09/02 10:02:24;;;;;;;1.40;0.50;;;;;;;23.45;100.00;100602.83;104786;1257;60494;-50
2023/09/02 10:04:56;;;;;;;0.50;0.40;;;;;;;23.39;100.00;100609.57;104860;1257;72137;-51
2023/09/02 10:07:25;;;;;;;0.50;0.40;;;;;;;23.30;100.00;100606.81;105770;1260;66816;-53
2023/09/02 10:09:54;;;;;;;1.00;0.40;;;;;;;23.25;100.00;100605.33;105058;1260;71276;-53
2023/09/02 10:12:22;;;;;;;0.60;0.50;;;;;;;23.22;100.00;100600.04;105196;1257;59753;-51
2023/09/02 10:14:49;;;;;;;0.50;0.40;;;;;;;23.24;100.00;100602.63;104857;1262;60281;-52
2023/09/02 10:17:17;;;;;;;0.50;0.50;;;;;;;23.25;100.00;100611.33;104700;1263;73930;-52
2023/09/02 10:19:45;;;;;;;0.40;0.40;;;;;;;23.23;100.00;100610.21;104897;1262;66842;-51
2023/09/02 10:22:19;;;;;;;0.40;0.40;;;;;;;23.18;100.00;100607.55;104554;1257;72665;-50
2023/09/02 10:24:51;;;;;;;;;;;;;;;23.12;100.00;100610.14;104732;1257;60110;-51
2023/09/02 10:27:22;;;;;;;0.40;0.30;;;;;;;23.06;100.00;100609.70;104816;1261;60758;-50
2023/09/02 10:30:00;;;;;;;1.70;0.40;;;;;;;23.02;100.00;100609.66;104760;1257;73232;-50
2023/09/02 10:32:40;;;;;;;0.40;0.30;;;;;;;22.99;100.00;100616.70;106900;1257;65521;-50
2023/09/02 10:35:18;;;;;;;0.60;0.40;;;;;;;22.95;100.00;100612.70;104631;1263;72698;-55
2023/09/02 10:37:56;;;;;;;0.50;0.40;;;;;;;22.92;100.00;100611.98;104944;1260;59688;-51
2023/09/02 10:40:24;;;;;;;0.50;0.40;;;;;;;22.91;100.00;100613.92;104568;1257;60091;-51
2023/09/02 10:42:54;;;;;;;0.60;0.30;;;;;;;22.88;100.00;100614.33;104897;1259;71754;-51
2023/09/02 10:45:21;;;;;;;0.50;0.50;;;;;;;22.85;100.00;100618.33;105353;1257;66790;-51
2023/09/02 10:47:49;;;;;;;1.30;0.50;;;;;;;22.83;100.00;100618.44;104876;1262;72950;-51
2023/09/02 10:50:18;;;;;;;0.40;0.40;;;;;;;22.79;100.00;100612.38;105469;1262;59729;-52
2023/09/02 10:52:47;;;;;;;1.40;0.50;;;;;;;22.76;100.00;100613.60;105084;1258;60148;-53
2023/09/02 10:55:35;;;;;;;0.90;0.60;;;;;;;22.73;100.00;100612.70;105047;1257;72531;-53
2023/09/02 10:58:03;;;;;;;1.60;0.50;;;;;;;22.71;100.00;100614.39;104830;1263;66364;-53
2023/09/02 11:00:31;;;;;;;0.50;0.40;;;;;;;22.67;100.00;100613.41;104831;1262;72662;-50
2023/09/02 11:02:58;;;;;;;0.60;0.50;;;;;;;22.64;100.00;100610.13;104702;1258;59708;-50
2023/09/02 11:05:27;;;;;;;1.50;0.40;;;;;;;22.64;100.00;100609.95;105058;1257;60472;-50
2023/09/02 11:07:55;;;;;;;0.40;0.40;;;;;;;22.65;100.00;100611.89;107227;1257;71776;-52
2023/09/02 11:10:22;;;;;;;0.50;0.40;;;;;;;22.65;100.00;100606.95;104815;1263;66925;-50
2023/09/02 11:13:04;;;;;;;0.60;0.60;;;;;;;22.66;100.00;100613.69;104688;1266;73244;-51
2023/09/02 11:15:34;;;;;;;0.60;0.50;;;;;;;22.64;100.00;100610.02;104870;1257;60097;-51
2023/09/02 11:18:32;;;;;;;0.40;0.40;;;;;;;22.60;100.00;100611.20;105055;1257;60075;-51